createdAt,value
2023-02-24T00:01:26.284Z,101358.91
2023-02-24T00:03:58.207Z,101357.06
2023-02-24T00:06:36.895Z,101355.31
2023-02-24T00:09:11.961Z,101341.53
2023-02-24T00:11:40.741Z,101342.34
2023-02-24T00:14:09.929Z,101337.06
2023-02-24T00:16:39.843Z,101342.91
2023-02-24T00:19:07.632Z,101335.84
2023-02-24T00:21:37.647Z,101326.31
2023-02-24T00:24:05.300Z,101330.44
2023-02-24T00:26:37.168Z,101330.34
2023-02-24T00:29:09.540Z,101329.53
2023-02-24T00:31:39.736Z,101319.94
2023-02-24T00:34:07.123Z,101316.41
2023-02-24T00:36:35.000Z,101313.63
2023-02-24T00:39:09.118Z,101316.25
2023-02-24T00:41:37.839Z,101310.97
2023-02-24T00:44:07.362Z,101310.16
2023-02-24T00:46:36.021Z,101316.19
2023-02-24T00:49:09.708Z,101312.75
2023-02-24T00:51:37.669Z,101309.47
2023-02-24T00:54:05.327Z,101297.34
2023-02-24T00:56:35.023Z,101297.22
2023-02-24T00:59:02.663Z,101292.91
2023-02-24T01:01:32.816Z,101288.56
2023-02-24T01:04:02.191Z,101287.69
2023-02-24T01:06:29.496Z,101288.56
2023-02-24T01:08:57.955Z,101292.91
2023-02-24T01:11:45.121Z,101293.75
2023-02-24T01:14:13.962Z,101293.69
2023-02-24T01:16:41.801Z,101291.09
2023-02-24T01:19:09.368Z,101286.88
2023-02-24T01:21:36.859Z,101283.47
2023-02-24T01:24:04.191Z,101286.94
2023-02-24T01:26:37.544Z,101275.69
2023-02-24T01:29:04.961Z,101269.69
2023-02-24T01:31:32.076Z,101276.56
2023-02-24T01:33:58.857Z,101273.09
2023-02-24T01:36:26.378Z,101275.63
2023-02-24T01:38:53.373Z,101274.72
2023-02-24T01:41:27.981Z,101271.28
2023-02-24T01:44:02.501Z,101260.75
2023-02-24T01:46:31.405Z,101257.31
2023-02-24T01:49:03.619Z,101264.22
2023-02-24T01:51:34.523Z,101258.91
2023-02-24T01:54:02.165Z,101258.09
2023-02-24T01:56:33.707Z,101264.09
2023-02-24T01:59:01.195Z,101255.50
2023-02-24T02:01:29.039Z,101240.03
2023-02-24T02:04:00.600Z,101234.81
2023-02-24T02:06:27.714Z,101234.81
2023-02-24T02:08:55.509Z,101227.09
2023-02-24T02:11:32.865Z,101218.09
2023-02-24T02:14:00.607Z,101225.84
2023-02-24T02:16:32.887Z,101208.56
2023-02-24T02:19:18.871Z,101203.25
2023-02-24T02:21:55.490Z,101203.13
2023-02-24T02:24:37.381Z,101203.13
2023-02-24T02:27:32.043Z,101194.38
2023-02-24T02:30:03.530Z,101182.34
2023-02-24T02:32:39.867Z,101177.16
2023-02-24T02:35:19.161Z,101182.25
2023-02-24T02:37:56.409Z,101178.84
2023-02-24T02:40:32.146Z,101171.03
2023-02-24T02:43:07.261Z,101173.69
2023-02-24T02:45:47.624Z,101164.91
2023-02-24T02:48:25.709Z,101165.72
2023-02-24T02:51:06.926Z,101165.69
2023-02-24T02:53:37.535Z,101159.66
2023-02-24T02:56:11.495Z,101163.91
2023-02-24T02:58:46.496Z,101157.66
2023-02-24T03:01:16.428Z,101157.78
2023-02-24T03:03:46.833Z,101144.09
2023-02-24T03:06:16.446Z,101142.34
2023-02-24T03:08:48.318Z,101142.41
2023-02-24T03:11:17.117Z,101139.00
2023-02-24T03:13:45.580Z,101132.94
2023-02-24T03:16:13.829Z,101128.72
2023-02-24T03:18:46.430Z,101138.19
2023-02-24T03:21:20.034Z,101135.66
2023-02-24T03:23:50.200Z,101133.88
2023-02-24T03:26:24.474Z,101131.22
2023-02-24T03:29:01.155Z,101138.00
2023-02-24T03:31:33.519Z,101119.97
2023-02-24T03:34:08.342Z,101123.47
2023-02-24T03:36:35.457Z,101120.97
2023-02-24T03:39:04.608Z,101114.84
2023-02-24T03:41:39.026Z,101118.19
2023-02-24T03:44:07.886Z,101113.13
2023-02-24T03:46:36.056Z,101109.50
2023-02-24T03:49:16.586Z,101107.75
2023-02-24T03:51:48.817Z,101109.16
2023-02-24T03:54:31.168Z,101105.50
2023-02-24T03:57:05.684Z,101112.38
2023-02-24T03:59:32.694Z,101110.63
2023-02-24T04:02:03.896Z,101108.03
2023-02-24T04:04:38.514Z,101096.81
2023-02-24T04:07:17.953Z,101097.69
2023-02-24T04:09:57.177Z,101111.38
2023-02-24T04:12:37.255Z,101100.38
2023-02-24T04:15:14.187Z,101105.66
2023-02-24T04:17:46.959Z,101100.38
2023-02-24T04:20:16.636Z,101100.44
2023-02-24T04:22:48.877Z,101093.53
2023-02-24T04:25:18.048Z,101090.97
2023-02-24T04:27:47.256Z,101086.69
2023-02-24T04:30:14.631Z,101084.16
2023-02-24T04:32:42.941Z,101078.91
2023-02-24T04:35:12.925Z,101082.31
2023-02-24T04:37:46.057Z,101078.00
2023-02-24T04:40:16.983Z,101072.75
2023-02-24T04:42:49.015Z,101069.28
2023-02-24T04:45:17.457Z,101069.28
2023-02-24T04:48:06.131Z,101067.69
2023-02-24T04:50:34.699Z,101069.28
2023-02-24T04:53:06.948Z,101072.75
2023-02-24T04:55:39.280Z,101058.00
2023-02-24T04:58:07.774Z,101065.75
2023-02-24T05:00:35.861Z,101060.53
2023-02-24T05:03:06.612Z,101058.81
2023-02-24T05:05:33.683Z,101061.47
2023-02-24T05:08:09.202Z,101056.41
2023-02-24T05:11:05.118Z,101052.00
2023-02-24T05:13:32.625Z,101048.56
2023-02-24T05:16:04.210Z,101052.06
2023-02-24T05:18:37.261Z,101043.41
2023-02-24T05:21:24.838Z,101046.03
2023-02-24T05:23:52.827Z,101044.28
2023-02-24T05:26:21.211Z,101036.59
2023-02-24T05:28:52.434Z,101034.75
2023-02-24T05:31:21.529Z,101039.03
2023-02-24T05:33:54.639Z,101030.34
2023-02-24T05:36:22.290Z,101015.84
2023-02-24T05:38:56.554Z,101031.28
2023-02-24T05:41:24.570Z,101024.34
2023-02-24T05:43:55.091Z,101022.47
2023-02-24T05:46:29.675Z,101021.69
2023-02-24T05:48:57.991Z,101010.31
2023-02-24T05:51:26.171Z,101002.63
2023-02-24T05:53:56.858Z,101003.56
2023-02-24T05:56:27.526Z,101001.81
2023-02-24T05:59:02.230Z,101003.63
2023-02-24T06:01:36.077Z,100995.94
2023-02-24T06:04:06.933Z,100991.59
2023-02-24T06:06:35.081Z,100994.19
2023-02-24T06:09:07.664Z,100977.84
2023-02-24T06:11:38.494Z,100977.91
2023-02-24T06:14:08.135Z,100977.91
2023-02-24T06:16:35.662Z,100976.97
2023-02-24T06:19:02.962Z,100975.22
2023-02-24T06:21:30.036Z,100974.44
2023-02-24T06:23:58.034Z,100966.75
2023-02-24T06:26:29.791Z,100964.94
2023-02-24T06:28:58.821Z,100968.53
2023-02-24T06:31:26.835Z,100958.19
2023-02-24T06:33:53.825Z,100959.78
2023-02-24T06:36:21.160Z,100964.00
2023-02-24T06:38:49.632Z,100951.09
2023-02-24T06:41:16.671Z,100943.22
2023-02-24T06:43:44.854Z,100953.56
2023-02-24T06:46:13.648Z,100943.16
2023-02-24T06:48:40.692Z,100949.13
2023-02-24T06:51:14.278Z,100946.59
2023-02-24T06:53:44.823Z,100948.31
2023-02-24T06:56:18.514Z,100948.41
2023-02-24T06:58:52.501Z,100954.44
2023-02-24T07:01:22.111Z,100946.66
2023-02-24T07:04:19.654Z,100939.75
2023-02-24T07:06:52.502Z,100940.59
2023-02-24T07:09:23.393Z,100937.22
2023-02-24T07:12:15.136Z,100937.41
2023-02-24T07:14:47.551Z,100946.91
2023-02-24T07:17:14.812Z,100946.19
2023-02-24T07:19:42.333Z,100938.41
2023-02-24T07:22:32.789Z,100929.91
2023-02-24T07:25:04.385Z,100931.75
2023-02-24T07:27:31.802Z,100933.28
2023-02-24T07:30:16.194Z,100926.53
2023-02-24T07:35:36.201Z,100907.69
2023-02-24T07:38:23.089Z,100904.97
2023-02-24T07:41:06.826Z,100907.63
2023-02-24T07:45:47.684Z,100900.00
2023-02-24T07:47:07.754Z,100888.81
2023-02-24T07:49:35.914Z,100890.34
2023-02-24T07:52:11.868Z,100902.50
2023-02-24T07:54:39.584Z,100885.31
2023-02-24T07:57:15.065Z,100897.56
2023-02-24T07:59:45.242Z,100892.38
2023-02-24T08:02:14.865Z,100888.97
2023-02-24T08:04:51.391Z,100883.94
2023-02-24T08:07:25.017Z,100878.00
2023-02-24T08:10:16.665Z,100871.81
2023-02-24T08:12:46.877Z,100868.41
2023-02-24T08:15:28.259Z,100864.06
2023-02-24T08:18:06.902Z,100854.69
2023-02-24T08:20:51.584Z,100857.22
2023-02-24T08:23:46.445Z,100849.47
2023-02-24T08:29:06.645Z,100837.56
2023-02-24T08:31:48.147Z,100853.84
2023-02-24T08:34:20.818Z,100835.78
2023-02-24T08:36:56.179Z,100840.16
2023-02-24T08:39:32.209Z,100831.44
2023-02-24T08:41:59.666Z,100824.59
2023-02-24T08:44:30.708Z,100824.69
2023-02-24T08:47:01.340Z,100816.09
2023-02-24T08:49:40.374Z,100817.03
2023-02-24T08:55:10.826Z,100815.31
2023-02-24T08:57:38.068Z,100796.34
2023-02-24T09:00:07.281Z,100806.78
2023-02-24T09:02:45.883Z,100802.47
2023-02-24T09:05:17.017Z,100799.97
2023-02-24T09:07:54.873Z,100789.72
2023-02-24T09:10:24.867Z,100788.00
2023-02-24T09:12:55.906Z,100782.03
2023-02-24T09:15:25.633Z,100782.25
2023-02-24T09:18:01.478Z,100780.59
2023-02-24T09:20:47.653Z,100778.03
2023-02-24T09:23:22.802Z,100781.44
2023-02-24T09:25:50.168Z,100774.47
2023-02-24T09:28:24.595Z,100770.19
2023-02-24T09:30:57.185Z,100763.41
2023-02-24T09:33:28.616Z,100755.59
2023-02-24T09:36:13.168Z,100746.97
2023-02-24T09:38:59.308Z,100760.81
2023-02-24T09:41:55.302Z,100753.19
2023-02-24T09:44:28.534Z,100740.22
2023-02-24T09:47:00.257Z,100741.94
2023-02-24T09:49:40.061Z,100747.16
2023-02-24T09:52:16.671Z,100742.59
2023-02-24T09:55:04.802Z,100727.06
2023-02-24T09:57:39.889Z,100729.47
2023-02-24T10:00:26.216Z,100719.16
2023-02-24T10:03:03.914Z,100725.22
2023-02-24T10:05:49.549Z,100720.91
2023-02-24T10:08:29.042Z,100714.25
2023-02-24T10:11:07.292Z,100707.06
2023-02-24T10:13:38.692Z,100707.13
2023-02-24T10:16:11.485Z,100686.47
2023-02-24T10:19:15.484Z,100689.88
2023-02-24T10:22:02.583Z,100689.75
2023-02-24T10:24:35.544Z,100682.88
2023-02-24T10:27:17.644Z,100678.56
2023-02-24T10:29:44.868Z,100676.03
2023-02-24T10:32:31.689Z,100670.91
2023-02-24T10:35:00.140Z,100674.38
2023-02-24T10:37:29.584Z,100660.56
2023-02-24T10:40:09.987Z,100669.94
2023-02-24T10:42:38.478Z,100658.81
2023-02-24T10:45:22.021Z,100660.31
2023-02-24T10:47:57.092Z,100660.34
2023-02-24T10:50:32.602Z,100667.16
2023-02-24T10:53:07.249Z,100667.03
2023-02-24T10:55:43.310Z,100655.03
2023-02-24T10:58:28.684Z,100651.47
2023-02-24T11:01:15.751Z,100646.28
2023-02-24T11:04:01.607Z,100639.25
2023-02-24T11:06:41.246Z,100644.47
2023-02-24T11:09:20.251Z,100637.78
2023-02-24T11:12:11.062Z,100633.25
2023-02-24T11:15:07.294Z,100627.03
2023-02-24T11:17:36.949Z,100624.47
2023-02-24T11:20:15.552Z,100618.31
2023-02-24T11:22:43.587Z,100618.44
2023-02-24T11:25:12.278Z,100595.94
2023-02-24T11:27:43.218Z,100600.25
2023-02-24T11:30:52.089Z,100585.63
2023-02-24T11:33:23.525Z,100588.19
2023-02-24T11:35:54.847Z,100575.34
2023-02-24T11:38:40.624Z,100571.78
2023-02-24T11:41:16.559Z,100571.72
2023-02-24T11:43:59.167Z,100563.00
2023-02-24T11:46:37.226Z,100561.34
2023-02-24T11:49:36.629Z,100562.22
2023-02-24T11:52:04.719Z,100554.53
2023-02-24T11:54:41.543Z,100545.91
2023-02-24T11:57:18.918Z,100557.97
2023-02-24T11:59:54.780Z,100542.34
2023-02-24T12:02:42.451Z,100552.78
2023-02-24T12:05:15.274Z,100542.38
2023-02-24T12:07:52.244Z,100537.16
2023-02-24T12:10:33.745Z,100533.50
2023-02-24T12:13:16.585Z,100538.69
2023-02-24T12:15:52.748Z,100524.97
2023-02-24T12:18:25.449Z,100508.88
2023-02-24T12:20:58.010Z,100499.31
2023-02-24T12:23:34.013Z,100504.50
2023-02-24T12:26:20.337Z,100497.59
2023-02-24T12:29:07.276Z,100495.78
2023-02-24T12:31:53.604Z,100487.22
2023-02-24T12:34:29.841Z,100487.19
2023-02-24T12:37:00.529Z,100465.75
2023-02-24T12:39:33.676Z,100470.13
2023-02-24T12:42:33.062Z,100464.84
2023-02-24T12:45:00.235Z,100466.63
2023-02-24T12:47:50.487Z,100467.63
2023-02-24T12:50:27.534Z,100461.44
2023-02-24T12:53:18.803Z,100448.44
2023-02-24T12:55:55.757Z,100457.06
2023-02-24T12:58:32.374Z,100444.13
2023-02-24T13:01:15.845Z,100446.00
2023-02-24T13:03:59.682Z,100440.75
2023-02-24T13:06:41.207Z,100432.19
2023-02-24T13:09:29.572Z,100434.91
2023-02-24T13:11:59.558Z,100427.03
2023-02-24T13:14:28.886Z,100433.00
2023-02-24T13:17:10.976Z,100421.84
2023-02-24T13:19:41.666Z,100409.81
2023-02-24T13:22:12.486Z,100416.81
2023-02-24T13:24:41.040Z,100413.44
2023-02-24T13:27:14.795Z,100424.66
2023-02-24T13:29:43.312Z,100414.28
2023-02-24T13:32:40.143Z,100404.84
2023-02-24T13:35:13.898Z,100394.53
2023-02-24T13:37:45.143Z,100388.56
2023-02-24T13:40:16.494Z,100384.25
2023-02-24T13:43:00.043Z,100372.25
2023-02-24T13:45:35.797Z,100366.13
2023-02-24T13:48:18.933Z,100362.75
2023-02-24T13:51:10.170Z,100360.09
2023-02-24T13:53:57.657Z,100363.56
2023-02-24T13:56:34.323Z,100351.47
2023-02-24T13:59:33.015Z,100349.78
2023-02-24T14:02:15.701Z,100346.34
2023-02-24T14:04:51.435Z,100356.63
2023-02-24T14:07:27.915Z,100353.25
2023-02-24T14:10:19.204Z,100339.47
2023-02-24T14:12:47.933Z,100346.41
2023-02-24T14:15:27.140Z,100347.22
2023-02-24T14:17:57.821Z,100341.28
2023-02-24T14:20:25.235Z,100329.28
2023-02-24T14:22:59.236Z,100336.19
2023-02-24T14:25:35.896Z,100327.59
2023-02-24T14:28:03.432Z,100332.75
2023-02-24T14:30:40.299Z,100319.00
2023-02-24T14:33:18.982Z,100313.88
2023-02-24T14:35:47.228Z,100312.16
2023-02-24T14:38:37.380Z,100305.34
2023-02-24T14:41:07.104Z,100309.69
2023-02-24T14:43:40.880Z,100308.81
2023-02-24T14:46:09.669Z,100308.84
2023-02-24T14:48:36.951Z,100305.44
2023-02-24T14:51:24.519Z,100298.50
2023-02-24T14:53:59.802Z,100311.47
2023-02-24T14:56:32.657Z,100293.41
2023-02-24T14:59:07.471Z,100283.03
2023-02-24T15:01:39.803Z,100281.38
2023-02-24T15:04:31.864Z,100273.63
2023-02-24T15:07:03.651Z,100284.94
2023-02-24T15:09:42.518Z,100279.75
2023-02-24T15:12:44.396Z,100283.13
2023-02-24T15:15:44.762Z,100277.09
2023-02-24T15:18:26.006Z,100264.22
2023-02-24T15:21:05.889Z,100259.91
2023-02-24T15:23:36.464Z,100259.91
2023-02-24T15:26:08.728Z,100267.66
2023-02-24T15:28:37.629Z,100264.25
2023-02-24T15:31:16.862Z,100247.00
2023-02-24T15:33:52.653Z,100243.53
2023-02-24T15:36:28.647Z,100237.47
2023-02-24T15:39:01.445Z,100241.81
2023-02-24T15:41:44.532Z,100233.19
2023-02-24T15:44:29.882Z,100231.44
2023-02-24T15:46:59.198Z,100234.91
2023-02-24T15:49:26.143Z,100231.44
2023-02-24T15:51:56.004Z,100231.44
2023-02-24T15:54:36.674Z,100221.09
2023-02-24T15:57:05.417Z,100228.00
2023-02-24T15:59:32.627Z,100228.00
2023-02-24T16:02:01.180Z,100219.38
2023-02-24T16:04:29.732Z,100238.34
2023-02-24T16:06:58.206Z,100250.44
2023-02-24T16:09:33.747Z,100255.56
2023-02-24T16:12:05.234Z,100245.22
2023-02-24T16:14:38.848Z,100243.50
2023-02-24T16:17:28.591Z,100233.09
2023-02-24T16:20:00.471Z,100224.50
2023-02-24T16:22:31.417Z,100217.63
2023-02-24T16:24:59.296Z,100228.00
2023-02-24T16:27:29.477Z,100227.09
2023-02-24T16:29:57.305Z,100222.78
2023-02-24T16:32:25.916Z,100226.25
2023-02-24T16:34:53.682Z,100232.28
2023-02-24T16:37:24.441Z,100232.28
2023-02-24T16:39:51.397Z,100233.16
2023-02-24T16:42:22.315Z,100231.44
2023-02-24T16:44:49.878Z,100225.38
2023-02-24T16:47:24.072Z,100217.63
2023-02-24T16:49:58.059Z,100215.03
2023-02-24T16:52:25.177Z,100222.81
2023-02-24T16:54:52.748Z,100219.38
2023-02-24T16:57:25.657Z,100229.75
2023-02-24T16:59:52.792Z,100228.84
2023-02-24T17:02:23.482Z,100235.75
2023-02-24T17:04:50.607Z,100236.59
2023-02-24T17:07:20.780Z,100240.91
2023-02-24T17:09:48.256Z,100240.94
2023-02-24T17:12:54.289Z,100236.59
2023-02-24T17:15:23.692Z,100239.97
2023-02-24T17:17:51.243Z,100242.63
2023-02-24T17:20:30.279Z,100231.41
2023-02-24T17:23:00.588Z,100231.38
2023-02-24T17:25:29.882Z,100241.75
2023-02-24T17:27:58.628Z,100240.03
2023-02-24T17:32:08.233Z,100248.69
2023-02-24T17:34:15.089Z,100253.88
2023-02-24T17:36:42.852Z,100250.44
2023-02-24T17:39:09.821Z,100248.69
2023-02-24T17:41:37.646Z,100265.09
2023-02-24T17:44:04.622Z,100252.13
2023-02-24T17:46:31.758Z,100248.69
2023-02-24T17:49:00.276Z,100255.53
2023-02-24T17:51:31.187Z,100252.97
2023-02-24T17:53:59.410Z,100265.88
2023-02-24T17:56:27.029Z,100270.19
2023-02-24T17:58:59.095Z,100271.06
2023-02-24T18:01:28.882Z,100272.81
2023-02-24T18:03:57.916Z,100277.94
2023-02-24T18:06:25.504Z,100277.97
2023-02-24T18:08:52.672Z,100270.25
2023-02-24T18:11:30.057Z,100276.28
2023-02-24T18:14:00.681Z,100266.81
2023-02-24T18:16:28.236Z,100272.84
2023-02-24T18:18:55.264Z,100274.59
2023-02-24T18:21:23.235Z,100290.13
2023-02-24T18:23:53.633Z,100296.16
2023-02-24T18:26:25.573Z,100309.09
2023-02-24T18:28:54.140Z,100303.84
2023-02-24T18:31:24.435Z,100308.84
2023-02-24T18:33:56.251Z,100317.38
2023-02-24T18:36:24.416Z,100316.50
2023-02-24T18:38:51.496Z,100313.88
2023-02-24T18:41:21.508Z,100310.44
2023-02-24T18:43:54.267Z,100314.69
2023-02-24T18:46:22.265Z,100316.44
2023-02-24T18:48:50.363Z,100308.66
2023-02-24T18:51:22.046Z,100313.88
2023-02-24T18:53:52.452Z,100315.59
2023-02-24T18:56:25.046Z,100318.97
2023-02-24T18:58:56.008Z,100308.66
2023-02-24T19:01:28.636Z,100313.88
2023-02-24T19:03:56.129Z,100317.31
2023-02-24T19:06:26.721Z,100312.97
2023-02-24T19:09:10.351Z,100315.56
2023-02-24T19:11:39.514Z,100324.16
2023-02-24T19:14:06.973Z,100318.16
2023-02-24T19:16:34.739Z,100315.59
2023-02-24T19:19:02.028Z,100321.63
2023-02-24T19:21:31.355Z,100322.47
2023-02-24T19:24:01.705Z,100330.28
2023-02-24T19:26:29.752Z,100322.53
2023-02-24T19:28:58.510Z,100332.88
2023-02-24T19:31:28.656Z,100333.75
2023-02-24T19:34:01.259Z,100334.63
2023-02-24T19:36:29.957Z,100347.47
2023-02-24T19:38:57.900Z,100358.69
2023-02-24T19:41:25.584Z,100356.97
2023-02-24T19:43:52.651Z,100364.72
2023-02-24T19:46:20.010Z,100381.03
2023-02-24T19:48:48.384Z,100383.56
2023-02-24T19:51:21.295Z,100375.66
2023-02-24T19:53:52.607Z,100377.31
2023-02-24T19:56:24.723Z,100371.19
2023-02-24T19:58:56.567Z,100367.72
2023-02-24T20:01:25.402Z,100365.94
2023-02-24T20:03:58.092Z,100360.75
2023-02-24T20:06:37.366Z,100373.66
2023-02-24T20:09:15.353Z,100370.28
2023-02-24T20:11:45.208Z,100377.25
2023-02-24T20:14:13.173Z,100378.97
2023-02-24T20:16:42.080Z,100366.03
2023-02-24T20:19:12.154Z,100359.97
2023-02-24T20:21:40.456Z,100366.81
2023-02-24T20:24:12.614Z,100361.66
2023-02-24T20:26:43.105Z,100372.03
2023-02-24T20:29:11.245Z,100390.91
2023-02-24T20:31:40.135Z,100386.59
2023-02-24T20:34:09.396Z,100389.22
2023-02-24T20:36:37.408Z,100390.91
2023-02-24T20:39:08.071Z,100389.22
2023-02-24T20:41:35.339Z,100390.03
2023-02-24T20:44:03.923Z,100388.34
2023-02-24T20:46:32.816Z,100383.97
2023-02-24T20:49:06.769Z,100388.28
2023-02-24T20:51:37.072Z,100389.22
2023-02-24T20:54:05.385Z,100387.53
2023-02-24T20:56:35.706Z,100390.94
2023-02-24T20:59:07.220Z,100390.94
2023-02-24T21:01:36.397Z,100397.69
2023-02-24T21:04:04.099Z,100399.50
2023-02-24T21:06:32.100Z,100389.09
2023-02-24T21:08:59.202Z,100395.97
2023-02-24T21:11:26.872Z,100394.28
2023-02-24T21:13:53.915Z,100392.47
2023-02-24T21:16:21.951Z,100399.44
2023-02-24T21:18:51.396Z,100390.00
2023-02-24T21:21:19.820Z,100392.50
2023-02-24T21:23:47.687Z,100390.78
2023-02-24T21:26:15.056Z,100402.78
2023-02-24T21:28:42.511Z,100398.47
2023-02-24T21:31:15.860Z,100401.88
2023-02-24T21:33:42.810Z,100407.88
2023-02-24T21:36:16.367Z,100404.47
2023-02-24T21:38:43.436Z,100411.41
2023-02-24T21:41:14.841Z,100415.69
2023-02-24T21:43:44.164Z,100414.72
2023-02-24T21:46:13.446Z,100404.38
2023-02-24T21:48:41.759Z,100407.84
2023-02-24T21:51:11.940Z,100407.00
2023-02-24T21:53:43.577Z,100410.50
2023-02-24T21:56:18.008Z,100427.72
2023-02-24T21:58:50.245Z,100426.88
2023-02-24T22:01:20.804Z,100417.44
2023-02-24T22:03:47.541Z,100419.22
2023-02-24T22:06:17.303Z,100416.56
2023-02-24T22:08:45.654Z,100427.78
2023-02-24T22:11:15.585Z,100414.84
2023-02-24T22:13:44.026Z,100423.47
2023-02-24T22:16:18.127Z,100409.66
2023-02-24T22:18:45.907Z,100428.66
2023-02-24T22:21:17.266Z,100427.75
2023-02-24T22:23:46.411Z,100419.97
2023-02-24T22:26:14.761Z,100421.66
2023-02-24T22:28:43.409Z,100440.56
2023-02-24T22:31:14.750Z,100425.09
2023-02-24T22:33:43.450Z,100441.41
2023-02-24T22:36:16.388Z,100426.66
2023-02-24T22:38:45.603Z,100420.66
2023-02-24T22:41:16.685Z,100430.13
2023-02-24T22:43:44.329Z,100433.63
2023-02-24T22:46:14.194Z,100432.75
2023-02-24T22:48:41.067Z,100437.06
2023-02-24T22:51:10.515Z,100442.16
2023-02-24T22:53:40.205Z,100437.81
2023-02-24T22:56:08.597Z,100438.72
2023-02-24T22:58:37.576Z,100447.34
2023-02-24T23:01:21.944Z,100442.19
2023-02-24T23:03:49.877Z,100446.66
2023-02-24T23:06:20.026Z,100449.13
2023-02-24T23:08:49.770Z,100454.34
2023-02-24T23:11:19.909Z,100454.22
2023-02-24T23:13:49.626Z,100452.59
2023-02-24T23:16:20.170Z,100449.25
2023-02-24T23:18:50.955Z,100447.38
2023-02-24T23:21:22.268Z,100456.91
2023-02-24T23:23:53.389Z,100459.50
2023-02-24T23:26:20.907Z,100460.25
2023-02-24T23:28:48.375Z,100469.91
2023-02-24T23:31:20.516Z,100466.44
2023-02-24T23:33:50.393Z,100480.19
2023-02-24T23:36:18.561Z,100481.91
2023-02-24T23:38:45.747Z,100487.06
2023-02-24T23:41:13.425Z,100482.81
2023-02-24T23:43:40.858Z,100490.53
2023-02-24T23:46:11.104Z,100492.28
2023-02-24T23:48:38.511Z,100482.78
2023-02-24T23:51:08.322Z,100485.44
2023-02-24T23:53:43.766Z,100487.13
2023-02-24T23:56:15.197Z,100487.97
2023-02-24T23:58:42.371Z,100493.19
